createdAt,value
2022-09-06T00:00:01.108Z,16.5
2022-09-06T00:01:08.504Z,16.5
2022-09-06T00:02:01.948Z,16.5
2022-09-06T00:03:01.265Z,16.4
2022-09-06T00:04:01.340Z,16.4
2022-09-06T00:05:02.148Z,16.4
2022-09-06T00:06:10.619Z,16.4
2022-09-06T00:07:01.453Z,16.3
2022-09-06T00:08:01.152Z,16.4
2022-09-06T00:09:00.856Z,16.4
2022-09-06T00:10:01.187Z,16.4
2022-09-06T00:11:14.282Z,16.3
2022-09-06T00:12:02.417Z,16.3
2022-09-06T00:13:01.862Z,16.3
2022-09-06T00:14:01.099Z,16.3
2022-09-06T00:15:01.514Z,16.3
2022-09-06T00:16:01.306Z,16.3
2022-09-06T00:17:01.125Z,16.3
2022-09-06T00:18:01.056Z,16.3
2022-09-06T00:19:01.035Z,16.3
2022-09-06T00:20:01.043Z,16.3
2022-09-06T00:21:01.149Z,16.3
2022-09-06T00:22:01.151Z,16.3
2022-09-06T00:23:01.056Z,16.3
2022-09-06T00:24:01.621Z,16.3
2022-09-06T00:25:01.073Z,16.3
2022-09-06T00:26:01.084Z,16.3
2022-09-06T00:27:01.080Z,16.3
2022-09-06T00:28:01.096Z,16.3
2022-09-06T00:29:01.101Z,16.3
2022-09-06T00:30:01.159Z,16.3
2022-09-06T00:31:01.220Z,16.3
2022-09-06T00:32:01.465Z,16.3
2022-09-06T00:33:01.527Z,16.3
2022-09-06T00:34:01.139Z,16.3
2022-09-06T00:35:01.137Z,16.3
2022-09-06T00:36:01.051Z,16.3
2022-09-06T00:37:01.145Z,16.3
2022-09-06T00:38:01.046Z,16.3
2022-09-06T00:39:01.077Z,16.3
2022-09-06T00:40:01.189Z,16.3
2022-09-06T00:41:01.100Z,16.3
2022-09-06T00:42:01.036Z,16.3
2022-09-06T00:43:01.095Z,16.3
2022-09-06T00:44:01.094Z,16.3
2022-09-06T00:45:01.037Z,16.3
2022-09-06T00:46:01.207Z,16.3
2022-09-06T00:47:01.115Z,16.3
2022-09-06T00:48:01.115Z,16.3
2022-09-06T00:49:01.411Z,16.3
2022-09-06T00:50:01.511Z,16.3
2022-09-06T00:51:03.152Z,16.3
2022-09-06T00:52:01.153Z,16.3
2022-09-06T00:53:01.882Z,16.3
2022-09-06T00:54:01.822Z,16.3
2022-09-06T00:55:00.475Z,16.3
2022-09-06T00:56:00.145Z,16.3
2022-09-06T00:56:59.827Z,16.3
2022-09-06T00:58:01.459Z,16.3
2022-09-06T00:59:02.218Z,16.2
2022-09-06T01:00:01.199Z,16.2
2022-09-06T01:01:02.189Z,16.2
2022-09-06T01:02:01.270Z,16.2
2022-09-06T01:03:01.109Z,16.2
2022-09-06T01:04:01.121Z,16.2
2022-09-06T01:05:01.175Z,16.2
2022-09-06T01:06:01.166Z,16.2
2022-09-06T01:07:01.553Z,16.2
2022-09-06T01:08:01.248Z,16.2
2022-09-06T01:09:03.929Z,16.1
2022-09-06T01:10:01.982Z,16.1
2022-09-06T01:11:01.074Z,16.1
2022-09-06T01:12:01.076Z,16.1
2022-09-06T01:13:01.078Z,16.1
2022-09-06T01:14:01.096Z,16.1
2022-09-06T01:15:01.428Z,16.1
2022-09-06T01:16:02.061Z,16.1
2022-09-06T01:17:01.942Z,16.1
2022-09-06T01:18:01.772Z,16.1
2022-09-06T01:19:01.064Z,16.1
2022-09-06T01:20:01.120Z,16.1
2022-09-06T01:21:01.115Z,16.1
2022-09-06T01:22:01.138Z,16.1
2022-09-06T01:23:01.388Z,16.1
2022-09-06T01:24:03.839Z,16.1
2022-09-06T01:25:01.518Z,16.1
2022-09-06T01:26:01.082Z,16.1
2022-09-06T01:27:01.062Z,16.1
2022-09-06T01:28:01.061Z,16.1
2022-09-06T01:29:01.073Z,16.1
2022-09-06T01:30:01.080Z,16.1
2022-09-06T01:31:01.163Z,16.1
2022-09-06T01:32:01.133Z,16.1
2022-09-06T01:33:01.205Z,16.1
2022-09-06T01:34:01.185Z,16.1
2022-09-06T01:35:01.419Z,16.1
2022-09-06T01:36:01.049Z,16.1
2022-09-06T01:37:10.444Z,16.1
2022-09-06T01:38:01.058Z,16.1
2022-09-06T01:39:01.042Z,16.1
2022-09-06T01:40:01.258Z,16
2022-09-06T01:41:01.339Z,16.1
2022-09-06T01:42:06.874Z,16
2022-09-06T01:43:02.078Z,16
2022-09-06T01:44:01.883Z,16
2022-09-06T01:45:01.103Z,16
2022-09-06T01:46:01.151Z,16.1
2022-09-06T01:47:09.964Z,16.1
2022-09-06T01:48:01.092Z,16
2022-09-06T01:49:01.103Z,16
2022-09-06T01:50:01.131Z,16
2022-09-06T01:51:01.144Z,16
2022-09-06T01:52:11.900Z,16
2022-09-06T01:53:01.131Z,16.1
2022-09-06T01:54:01.145Z,16.1
2022-09-06T01:55:01.151Z,16.1
2022-09-06T01:56:01.054Z,16.1
2022-09-06T01:57:14.318Z,16.1
2022-09-06T01:58:01.058Z,16.1
2022-09-06T01:59:01.057Z,16.1
2022-09-06T02:00:01.452Z,16.1
2022-09-06T02:01:01.502Z,16.1
2022-09-06T02:02:17.003Z,16.1
2022-09-06T02:03:01.087Z,16.1
2022-09-06T02:04:01.147Z,16.1
2022-09-06T02:05:01.623Z,16.1
2022-09-06T02:06:01.265Z,16.1
2022-09-06T02:07:01.925Z,16.1
2022-09-06T02:08:01.122Z,16.1
2022-09-06T02:09:00.692Z,16.1
2022-09-06T02:10:00.308Z,16.1
2022-09-06T02:10:59.910Z,16.1
2022-09-06T02:11:59.486Z,16.1
2022-09-06T02:13:01.741Z,16.1
2022-09-06T02:14:01.988Z,16.1
2022-09-06T02:15:01.477Z,16.1
2022-09-06T02:16:01.854Z,16.1
2022-09-06T02:17:01.666Z,16.1
2022-09-06T02:18:01.388Z,16.1
2022-09-06T02:19:01.055Z,16
2022-09-06T02:20:01.149Z,16
2022-09-06T02:21:01.113Z,16.1
2022-09-06T02:22:01.117Z,16.1
2022-09-06T02:23:01.125Z,16.1
2022-09-06T02:24:01.133Z,16.1
2022-09-06T02:25:01.035Z,16.1
2022-09-06T02:26:01.155Z,16.1
2022-09-06T02:27:01.045Z,16.1
2022-09-06T02:28:01.364Z,16.1
2022-09-06T02:29:01.429Z,16.2
2022-09-06T02:30:01.069Z,16.2
2022-09-06T02:31:01.145Z,16.2
2022-09-06T02:32:01.079Z,16.2
2022-09-06T02:33:01.097Z,16.1
2022-09-06T02:34:01.089Z,16.1
2022-09-06T02:35:01.088Z,16.1
2022-09-06T02:36:01.117Z,16.1
2022-09-06T02:37:01.108Z,16.1
2022-09-06T02:38:01.249Z,16.1
2022-09-06T02:39:01.024Z,16.1
2022-09-06T02:40:01.276Z,16.1
2022-09-06T02:41:01.149Z,16.1
2022-09-06T02:42:01.865Z,16.1
2022-09-06T02:43:01.050Z,16.1
2022-09-06T02:44:01.054Z,16.1
2022-09-06T02:45:01.065Z,16.1
2022-09-06T02:46:01.634Z,16.1
2022-09-06T02:47:02.083Z,16.1
2022-09-06T02:48:01.765Z,16.1
2022-09-06T02:49:01.027Z,16.1
2022-09-06T02:50:01.098Z,16.1
2022-09-06T02:51:01.112Z,16.1
2022-09-06T02:52:01.106Z,16.1
2022-09-06T02:53:01.115Z,16.1
2022-09-06T02:54:01.257Z,16.1
2022-09-06T02:55:01.368Z,16.1
2022-09-06T02:56:03.998Z,16.1
2022-09-06T02:57:01.550Z,16.1
2022-09-06T02:58:01.709Z,16.1
2022-09-06T02:59:01.659Z,16.1
2022-09-06T03:00:01.729Z,16.1
2022-09-06T03:01:01.826Z,16.1
2022-09-06T03:02:02.016Z,16.1
2022-09-06T03:03:02.199Z,16
2022-09-06T03:04:01.087Z,16
2022-09-06T03:05:01.090Z,16
2022-09-06T03:06:01.131Z,16
2022-09-06T03:07:01.103Z,16
2022-09-06T03:08:01.508Z,16
2022-09-06T03:09:00.805Z,16
2022-09-06T03:10:00.412Z,15.9
2022-09-06T03:11:00.016Z,15.9
2022-09-06T03:11:59.705Z,15.9
2022-09-06T03:13:01.861Z,15.9
2022-09-06T03:14:01.422Z,15.9
2022-09-06T03:15:00.949Z,15.9
2022-09-06T03:16:01.069Z,15.8
2022-09-06T03:17:01.160Z,15.8
2022-09-06T03:18:01.068Z,15.8
2022-09-06T03:19:01.078Z,15.8
2022-09-06T03:20:01.206Z,15.8
2022-09-06T03:21:01.335Z,15.8
2022-09-06T03:22:01.340Z,15.8
2022-09-06T03:23:01.857Z,15.8
2022-09-06T03:24:02.021Z,15.8
2022-09-06T03:25:01.518Z,15.8
2022-09-06T03:26:01.139Z,15.8
2022-09-06T03:27:01.127Z,15.8
2022-09-06T03:28:04.913Z,15.7
2022-09-06T03:29:00.829Z,15.7
2022-09-06T03:30:00.595Z,15.7
2022-09-06T03:31:00.319Z,15.8
2022-09-06T03:31:59.913Z,15.7
2022-09-06T03:33:06.689Z,15.7
2022-09-06T03:34:01.069Z,15.7
2022-09-06T03:35:01.104Z,15.7
2022-09-06T03:36:01.062Z,15.7
2022-09-06T03:37:01.109Z,15.7
2022-09-06T03:38:09.798Z,15.7
2022-09-06T03:39:01.404Z,15.6
2022-09-06T03:40:04.146Z,15.6
2022-09-06T03:41:02.169Z,15.6
2022-09-06T03:42:02.179Z,15.6
2022-09-06T03:43:13.303Z,15.6
2022-09-06T03:44:01.031Z,15.6
2022-09-06T03:45:01.060Z,15.6
2022-09-06T03:46:01.105Z,15.6
2022-09-06T03:47:01.052Z,15.6
2022-09-06T03:48:16.488Z,15.6
2022-09-06T03:49:01.181Z,15.6
2022-09-06T03:50:01.497Z,15.6
2022-09-06T03:51:01.100Z,15.6
2022-09-06T03:52:00.602Z,15.6
2022-09-06T03:53:00.290Z,15.6
2022-09-06T03:53:59.873Z,15.6
2022-09-06T03:54:59.535Z,15.6
2022-09-06T03:56:02.475Z,15.6
2022-09-06T03:57:01.350Z,15.6
2022-09-06T03:58:02.101Z,15.6
2022-09-06T03:59:01.049Z,15.5
2022-09-06T04:00:01.096Z,15.5
2022-09-06T04:01:01.217Z,15.5
2022-09-06T04:02:01.165Z,15.5
2022-09-06T04:03:01.933Z,15.5
2022-09-06T04:04:01.742Z,15.5
2022-09-06T04:05:00.891Z,15.5
2022-09-06T04:06:01.276Z,15.5
2022-09-06T04:07:01.475Z,15.5
2022-09-06T04:08:01.212Z,15.5
2022-09-06T04:09:01.143Z,15.5
2022-09-06T04:10:01.036Z,15.4
2022-09-06T04:11:01.145Z,15.4
2022-09-06T04:12:01.032Z,15.5
2022-09-06T04:13:01.428Z,15.4
2022-09-06T04:14:01.148Z,15.5
2022-09-06T04:15:01.074Z,15.4
2022-09-06T04:16:01.059Z,15.4
2022-09-06T04:17:01.970Z,15.4
2022-09-06T04:18:04.934Z,15.3
2022-09-06T04:19:01.102Z,15.3
2022-09-06T04:20:00.913Z,15.3
2022-09-06T04:21:02.242Z,15.3
2022-09-06T04:22:01.765Z,15.3
2022-09-06T04:23:01.592Z,15.3
2022-09-06T04:24:01.134Z,15.3
2022-09-06T04:25:00.704Z,15.3
2022-09-06T04:26:00.396Z,15.3
2022-09-06T04:26:59.980Z,15.3
2022-09-06T04:27:59.586Z,15.3
2022-09-06T04:29:01.413Z,15.3
2022-09-06T04:30:01.242Z,15.3
2022-09-06T04:31:04.683Z,15.3
2022-09-06T04:32:01.367Z,15.3
2022-09-06T04:33:01.970Z,15.3
2022-09-06T04:34:01.116Z,15.3
2022-09-06T04:35:01.463Z,15.3
2022-09-06T04:36:01.071Z,15.3
2022-09-06T04:37:01.057Z,15.3
2022-09-06T04:38:01.109Z,15.3
2022-09-06T04:39:01.113Z,15.3
2022-09-06T04:40:01.687Z,15.3
2022-09-06T04:41:01.455Z,15.3
2022-09-06T04:42:01.539Z,15.3
2022-09-06T04:43:01.695Z,15.3
2022-09-06T04:44:01.151Z,15.3
2022-09-06T04:45:01.215Z,15.3
2022-09-06T04:46:01.236Z,15.3
2022-09-06T04:47:04.333Z,15.3
2022-09-06T04:48:01.258Z,15.3
2022-09-06T04:49:01.422Z,15.3
2022-09-06T04:50:01.519Z,15.3
2022-09-06T04:51:04.152Z,15.3
2022-09-06T04:52:02.410Z,15.4
2022-09-06T04:53:01.057Z,15.4
2022-09-06T04:54:01.101Z,15.4
2022-09-06T04:55:03.754Z,15.4
2022-09-06T04:56:01.222Z,15.4
2022-09-06T04:57:02.402Z,15.4
2022-09-06T04:58:01.132Z,15.4
2022-09-06T04:59:02.249Z,15.4
2022-09-06T05:00:01.123Z,15.5
2022-09-06T05:01:01.216Z,15.5
2022-09-06T05:02:02.004Z,15.5
2022-09-06T05:03:01.047Z,15.5
2022-09-06T05:04:04.513Z,15.5
2022-09-06T05:05:01.039Z,15.5
2022-09-06T05:06:01.024Z,15.5
2022-09-06T05:07:01.422Z,15.5
2022-09-06T05:08:01.475Z,15.5
2022-09-06T05:09:07.956Z,15.5
2022-09-06T05:10:01.097Z,15.5
2022-09-06T05:11:01.673Z,15.5
2022-09-06T05:12:01.501Z,15.5
2022-09-06T05:13:01.120Z,15.5
2022-09-06T05:14:10.260Z,15.6
2022-09-06T05:15:01.196Z,15.5
2022-09-06T05:16:01.495Z,15.5
2022-09-06T05:17:01.052Z,15.5
2022-09-06T05:18:01.029Z,15.5
2022-09-06T05:19:13.454Z,15.5
2022-09-06T05:20:01.358Z,15.5
2022-09-06T05:21:01.062Z,15.5
2022-09-06T05:22:01.343Z,15.6
2022-09-06T05:23:01.097Z,15.6
2022-09-06T05:24:14.983Z,15.6
2022-09-06T05:25:01.907Z,15.5
2022-09-06T05:26:01.535Z,15.6
2022-09-06T05:27:01.681Z,15.6
2022-09-06T05:28:01.295Z,15.6
2022-09-06T05:29:16.581Z,15.6
2022-09-06T05:30:01.122Z,15.5
2022-09-06T05:31:01.142Z,15.6
2022-09-06T05:32:01.265Z,15.6
2022-09-06T05:33:01.088Z,15.6
2022-09-06T05:34:00.639Z,15.6
2022-09-06T05:35:00.238Z,15.6
2022-09-06T05:35:59.972Z,15.6
2022-09-06T05:36:59.639Z,15.6
2022-09-06T05:38:01.581Z,15.6
2022-09-06T05:39:01.475Z,15.6
2022-09-06T05:40:01.248Z,15.6
2022-09-06T05:41:02.006Z,15.6
2022-09-06T05:42:02.005Z,15.6
2022-09-06T05:43:01.110Z,15.6
2022-09-06T05:44:01.127Z,15.6
2022-09-06T05:45:01.214Z,15.6
2022-09-06T05:46:01.515Z,15.6
2022-09-06T05:47:01.240Z,15.6
2022-09-06T05:48:01.135Z,15.6
2022-09-06T05:49:01.086Z,15.6
2022-09-06T05:50:01.039Z,15.6
2022-09-06T05:51:01.057Z,15.6
2022-09-06T05:52:01.397Z,15.6
2022-09-06T05:53:01.327Z,15.6
2022-09-06T05:54:02.010Z,15.6
2022-09-06T05:55:02.022Z,15.6
2022-09-06T05:56:01.229Z,15.6
2022-09-06T05:57:01.092Z,15.6
2022-09-06T05:58:01.096Z,15.6
2022-09-06T05:59:01.453Z,15.6
2022-09-06T06:00:01.146Z,15.6
2022-09-06T06:01:01.173Z,15.6
2022-09-06T06:02:04.365Z,15.6
2022-09-06T06:03:01.134Z,15.6
2022-09-06T06:04:01.150Z,15.6
2022-09-06T06:05:01.427Z,15.6
2022-09-06T06:06:01.071Z,15.6
2022-09-06T06:07:01.066Z,15.6
2022-09-06T06:08:01.066Z,15.6
2022-09-06T06:09:01.085Z,15.6
2022-09-06T06:10:01.088Z,15.6
2022-09-06T06:11:01.065Z,15.6
2022-09-06T06:12:01.765Z,15.6
2022-09-06T06:13:01.680Z,15.6
2022-09-06T06:14:01.690Z,15.6
2022-09-06T06:15:01.805Z,15.6
2022-09-06T06:16:02.576Z,15.6
2022-09-06T06:17:01.212Z,15.6
2022-09-06T06:18:01.176Z,15.6
2022-09-06T06:19:01.850Z,15.6
2022-09-06T06:20:01.619Z,15.7
2022-09-06T06:21:01.532Z,15.7
2022-09-06T06:22:01.217Z,15.8
2022-09-06T06:23:01.065Z,15.8
2022-09-06T06:24:01.073Z,15.8
2022-09-06T06:25:01.095Z,15.8
2022-09-06T06:26:01.093Z,15.8
2022-09-06T06:27:01.142Z,15.8
2022-09-06T06:28:01.425Z,15.8
2022-09-06T06:29:01.138Z,15.8
2022-09-06T06:30:01.543Z,15.8
2022-09-06T06:31:00.911Z,15.9
2022-09-06T06:32:00.795Z,16
2022-09-06T06:33:00.609Z,16
2022-09-06T06:34:00.329Z,16.1
2022-09-06T06:35:00.153Z,16.1
2022-09-06T06:36:00.557Z,16.1
2022-09-06T06:37:00.389Z,16.1
2022-09-06T06:38:00.380Z,16.1
2022-09-06T06:39:00.409Z,16.2
2022-09-06T06:40:00.156Z,16.1
2022-09-06T06:41:04.410Z,16.1
2022-09-06T06:42:01.325Z,16.1
2022-09-06T06:43:01.389Z,16.1
2022-09-06T06:44:01.306Z,16.1
2022-09-06T06:45:01.108Z,16.1
2022-09-06T06:46:01.067Z,16.1
2022-09-06T06:47:00.797Z,16.1
2022-09-06T06:48:00.411Z,16.1
2022-09-06T06:49:00.408Z,16.1
2022-09-06T06:50:01.558Z,16.2
2022-09-06T06:51:01.305Z,16.3
2022-09-06T06:52:01.504Z,16.3
2022-09-06T06:53:01.497Z,16.4
2022-09-06T06:54:01.075Z,16.4
2022-09-06T06:55:04.571Z,16.5
2022-09-06T06:56:01.300Z,16.5
2022-09-06T06:57:01.915Z,16.5
2022-09-06T06:58:01.461Z,16.5
2022-09-06T06:59:01.213Z,16.6
2022-09-06T07:00:08.670Z,16.6
2022-09-06T07:01:01.590Z,16.6
2022-09-06T07:02:02.250Z,16.6
2022-09-06T07:03:01.312Z,16.6
2022-09-06T07:04:01.130Z,16.6
2022-09-06T07:06:17.186Z,16.6
2022-09-06T07:08:01.322Z,16.7
2022-09-06T07:09:01.237Z,16.8
2022-09-06T07:11:01.065Z,16.8
2022-09-06T07:12:01.090Z,16.8
2022-09-06T07:13:01.123Z,16.8
2022-09-06T07:14:01.336Z,16.8
2022-09-06T07:15:15.924Z,16.8
2022-09-06T07:16:01.609Z,16.8
2022-09-06T07:17:01.107Z,16.8
2022-09-06T07:18:01.478Z,16.8
2022-09-06T07:19:01.663Z,16.8
2022-09-06T07:20:17.510Z,16.8
2022-09-06T07:22:04.522Z,16.9
2022-09-06T07:25:01.056Z,17
2022-09-06T07:26:01.456Z,17
2022-09-06T07:28:05.742Z,17.1
2022-09-06T07:29:01.691Z,17.1
2022-09-06T07:30:01.108Z,17.2
2022-09-06T07:31:01.491Z,17.3
2022-09-06T07:32:17.237Z,17.3
2022-09-06T07:33:01.107Z,17.4
2022-09-06T07:34:01.133Z,17.3
2022-09-06T07:35:01.119Z,17.3
2022-09-06T07:36:01.514Z,17.3
2022-09-06T07:37:02.605Z,17.3
2022-09-06T07:38:02.127Z,17.3
2022-09-06T07:39:01.839Z,17.3
2022-09-06T07:40:01.090Z,17.3
2022-09-06T07:41:01.055Z,17.3
2022-09-06T07:42:01.304Z,17.3
2022-09-06T07:43:01.169Z,17.3
2022-09-06T07:44:01.087Z,17.3
2022-09-06T07:45:01.117Z,17.4
2022-09-06T07:46:01.487Z,17.5
2022-09-06T07:48:01.132Z,17.6
2022-09-06T07:49:01.122Z,17.6
2022-09-06T07:51:01.135Z,17.6
2022-09-06T07:52:01.306Z,17.6
2022-09-06T07:53:10.931Z,17.6
2022-09-06T07:55:01.965Z,17.8
2022-09-06T07:56:01.060Z,17.8
2022-09-06T07:57:01.069Z,17.8
2022-09-06T07:58:01.035Z,17.8
2022-09-06T07:59:01.075Z,17.8
2022-09-06T08:00:01.041Z,17.9
2022-09-06T08:01:01.088Z,17.9
2022-09-06T08:02:01.136Z,17.9
2022-09-06T08:03:01.198Z,18
2022-09-06T08:04:01.124Z,18
2022-09-06T08:05:01.101Z,18
2022-09-06T08:06:09.093Z,18.1
2022-09-06T08:09:01.048Z,18.3
2022-09-06T08:10:01.138Z,18.3
2022-09-06T08:11:01.053Z,18.3
2022-09-06T08:12:01.245Z,18.3
2022-09-06T08:13:00.821Z,18.3
2022-09-06T08:14:00.882Z,18.4
2022-09-06T08:15:01.083Z,18.3
2022-09-06T08:16:01.186Z,18.4
2022-09-06T08:17:01.926Z,18.3
2022-09-06T08:18:01.107Z,18.3
2022-09-06T08:19:01.141Z,18.4
2022-09-06T08:20:01.115Z,18.4
2022-09-06T08:21:01.136Z,18.3
2022-09-06T08:22:01.238Z,18.3
2022-09-06T08:23:01.347Z,18.3
2022-09-06T08:24:01.144Z,18.4
2022-09-06T08:25:01.145Z,18.4
2022-09-06T08:26:01.060Z,18.5
2022-09-06T08:27:01.197Z,18.4
2022-09-06T08:28:01.066Z,18.5
2022-09-06T08:29:01.091Z,18.5
2022-09-06T08:30:01.077Z,18.5
2022-09-06T08:31:01.050Z,18.6
2022-09-06T08:32:01.121Z,18.7
2022-09-06T08:33:01.029Z,18.7
2022-09-06T08:34:01.462Z,18.8
2022-09-06T08:35:01.484Z,18.8
2022-09-06T08:36:03.033Z,18.8
2022-09-06T08:37:01.116Z,18.8
2022-09-06T08:38:01.128Z,18.8
2022-09-06T08:39:01.141Z,18.8
2022-09-06T08:40:01.202Z,18.8
2022-09-06T08:41:00.926Z,18.8
2022-09-06T08:42:01.673Z,18.8
2022-09-06T08:43:01.068Z,18.9
2022-09-06T08:45:00.776Z,19
2022-09-06T08:46:04.038Z,19
2022-09-06T08:47:02.145Z,19
2022-09-06T08:48:01.089Z,19
2022-09-06T08:49:01.050Z,19
2022-09-06T08:50:01.033Z,19
2022-09-06T08:51:06.156Z,19
2022-09-06T08:52:00.496Z,19
2022-09-06T08:53:16.225Z,19.1
2022-09-06T08:54:02.150Z,19.1
2022-09-06T08:55:01.141Z,19.1
2022-09-06T08:56:09.761Z,19.1
2022-09-06T08:57:01.728Z,19.1
2022-09-06T08:58:01.106Z,19.1
2022-09-06T08:59:01.097Z,19.1
2022-09-06T09:00:01.444Z,19.2
2022-09-06T09:01:12.002Z,19.2
2022-09-06T09:02:04.111Z,19.3
2022-09-06T09:03:01.173Z,19.3
2022-09-06T09:04:01.106Z,19.3
2022-09-06T09:05:01.099Z,19.4
2022-09-06T09:06:14.488Z,19.5
2022-09-06T09:07:01.679Z,19.5
2022-09-06T09:08:02.547Z,19.5
2022-09-06T09:09:01.331Z,19.5
2022-09-06T09:10:01.132Z,19.5
2022-09-06T09:11:16.465Z,19.5
2022-09-06T09:12:01.545Z,19.5
2022-09-06T09:13:01.286Z,19.6
2022-09-06T09:14:02.746Z,19.6
2022-09-06T09:15:01.071Z,19.6
2022-09-06T09:16:01.150Z,19.6
2022-09-06T09:17:01.073Z,19.7
2022-09-06T09:18:01.078Z,19.7
2022-09-06T09:19:01.110Z,19.7
2022-09-06T09:20:01.094Z,19.7
2022-09-06T09:21:01.097Z,19.7
2022-09-06T09:22:01.500Z,19.8
2022-09-06T09:23:01.116Z,19.8
2022-09-06T09:24:01.139Z,19.8
2022-09-06T09:25:01.146Z,19.8
2022-09-06T09:26:01.279Z,19.8
2022-09-06T09:27:01.037Z,19.8
2022-09-06T09:28:01.058Z,19.9
2022-09-06T09:29:01.069Z,20
2022-09-06T09:31:01.823Z,20
2022-09-06T09:32:04.090Z,20
2022-09-06T09:33:01.102Z,20
2022-09-06T09:34:01.769Z,20
2022-09-06T09:35:01.100Z,20
2022-09-06T09:36:01.097Z,20.1
2022-09-06T09:38:07.746Z,20.1
2022-09-06T09:39:01.155Z,20.2
2022-09-06T09:40:01.621Z,20.3
2022-09-06T09:41:01.691Z,20.3
2022-09-06T09:42:01.338Z,20.3
2022-09-06T09:43:01.969Z,20.3
2022-09-06T09:44:04.678Z,20.3
2022-09-06T09:45:01.078Z,20.4
2022-09-06T09:46:01.073Z,20.4
2022-09-06T09:47:01.504Z,20.4
2022-09-06T09:48:01.197Z,20.5
2022-09-06T09:49:01.204Z,20.5
2022-09-06T09:50:01.084Z,20.5
2022-09-06T09:51:01.103Z,20.6
2022-09-06T09:52:01.119Z,20.6
2022-09-06T09:53:01.231Z,20.6
2022-09-06T09:54:01.121Z,20.6
2022-09-06T09:55:01.108Z,20.6
2022-09-06T09:56:01.270Z,20.6
2022-09-06T09:57:01.131Z,20.7
2022-09-06T09:58:01.191Z,20.7
2022-09-06T09:59:01.079Z,20.7
2022-09-06T10:00:01.157Z,20.6
2022-09-06T10:01:01.554Z,20.7
2022-09-06T10:02:01.067Z,20.7
2022-09-06T10:03:01.107Z,20.7
2022-09-06T10:05:01.093Z,20.7
2022-09-06T10:06:03.233Z,20.7
2022-09-06T10:07:08.872Z,20.6
2022-09-06T10:08:01.500Z,20.6
2022-09-06T10:09:02.289Z,20.6
2022-09-06T10:10:01.306Z,20.6
2022-09-06T10:11:01.343Z,20.6
2022-09-06T10:12:01.145Z,20.6
2022-09-06T10:13:01.141Z,20.6
2022-09-06T10:14:00.996Z,20.6
2022-09-06T10:15:03.581Z,20.6
2022-09-06T10:15:59.562Z,20.6
2022-09-06T10:17:01.801Z,20.5
2022-09-06T10:18:02.428Z,20.5
2022-09-06T10:19:01.957Z,20.5
2022-09-06T10:20:02.092Z,20.5
2022-09-06T10:21:01.200Z,20.5
2022-09-06T10:22:01.147Z,20.5
2022-09-06T10:23:01.108Z,20.5
2022-09-06T10:25:01.202Z,20.6
2022-09-06T10:26:01.139Z,20.6
2022-09-06T10:27:01.191Z,20.6
2022-09-06T10:28:10.808Z,20.6
2022-09-06T10:29:01.540Z,20.6
2022-09-06T10:30:01.308Z,20.6
2022-09-06T10:31:03.074Z,20.7
2022-09-06T10:32:04.208Z,20.7
2022-09-06T10:33:01.792Z,20.7
2022-09-06T10:34:01.484Z,20.7
2022-09-06T10:35:01.174Z,20.7
2022-09-06T10:36:01.868Z,20.6
2022-09-06T10:37:06.864Z,20.6
2022-09-06T10:38:01.000Z,20.7
2022-09-06T10:39:03.945Z,20.6
2022-09-06T10:40:01.172Z,20.7
2022-09-06T10:41:01.137Z,20.6
2022-09-06T10:42:11.109Z,20.6
2022-09-06T10:43:01.266Z,20.6
2022-09-06T10:44:01.724Z,20.6
2022-09-06T10:45:01.052Z,20.6
2022-09-06T10:46:01.199Z,20.7
2022-09-06T10:47:13.849Z,20.6
2022-09-06T10:48:01.152Z,20.7
2022-09-06T10:49:01.192Z,20.7
2022-09-06T10:50:01.145Z,20.7
2022-09-06T10:51:01.263Z,20.7
2022-09-06T10:52:16.903Z,20.7
2022-09-06T10:53:02.366Z,20.7
2022-09-06T10:54:01.510Z,20.7
2022-09-06T10:55:01.784Z,20.8
2022-09-06T10:56:02.658Z,20.8
2022-09-06T10:57:01.293Z,20.8
2022-09-06T10:58:16.508Z,20.8
2022-09-06T11:00:01.243Z,20.8
2022-09-06T11:01:02.160Z,20.8
2022-09-06T11:02:01.317Z,20.8
2022-09-06T11:04:06.849Z,20.9
2022-09-06T11:06:01.354Z,21
2022-09-06T11:07:01.344Z,21
2022-09-06T11:09:02.551Z,21.1
2022-09-06T11:10:01.115Z,21.1
2022-09-06T11:11:01.119Z,21.2
2022-09-06T11:12:01.164Z,21.2
2022-09-06T11:13:01.136Z,21.3
2022-09-06T11:14:05.441Z,21.3
2022-09-06T11:15:01.547Z,21.3
2022-09-06T11:16:01.281Z,21.3
2022-09-06T11:17:01.279Z,21.4
2022-09-06T11:18:01.071Z,21.4
2022-09-06T11:19:01.060Z,21.5
2022-09-06T11:20:04.091Z,21.5
2022-09-06T11:21:01.074Z,21.5
2022-09-06T11:22:01.200Z,21.5
2022-09-06T11:23:01.398Z,21.5
2022-09-06T11:24:01.437Z,21.5
2022-09-06T11:25:01.458Z,21.5
2022-09-06T11:26:01.038Z,21.5
2022-09-06T11:27:01.165Z,21.5
2022-09-06T11:28:01.537Z,21.5
2022-09-06T11:29:03.083Z,21.6
2022-09-06T11:30:01.305Z,21.6
2022-09-06T11:31:01.976Z,21.6
2022-09-06T11:32:16.615Z,21.6
2022-09-06T11:33:01.560Z,21.6
2022-09-06T11:34:01.293Z,21.6
2022-09-06T11:35:02.332Z,21.7
2022-09-06T11:36:02.178Z,21.7
2022-09-06T11:37:01.126Z,21.8
2022-09-06T11:38:01.081Z,21.8
2022-09-06T11:39:01.087Z,21.8
2022-09-06T11:41:01.111Z,21.8
2022-09-06T11:42:01.277Z,21.8
2022-09-06T11:43:01.365Z,21.8
2022-09-06T11:44:01.293Z,21.8
2022-09-06T11:45:01.231Z,21.8
2022-09-06T11:46:01.595Z,21.8
2022-09-06T11:47:01.355Z,21.8
2022-09-06T11:48:01.131Z,21.8
2022-09-06T11:49:01.093Z,21.9
2022-09-06T11:50:01.161Z,21.9
2022-09-06T11:51:01.065Z,21.8
2022-09-06T11:52:01.088Z,21.8
2022-09-06T11:53:01.143Z,21.8
2022-09-06T11:54:00.794Z,21.8
2022-09-06T11:55:00.441Z,21.8
2022-09-06T11:55:59.991Z,21.8
2022-09-06T11:56:59.559Z,21.8
2022-09-06T11:58:01.684Z,21.8
2022-09-06T11:59:01.707Z,21.8
2022-09-06T12:00:01.324Z,21.8
2022-09-06T12:01:01.273Z,21.8
2022-09-06T12:02:01.077Z,21.8
2022-09-06T12:04:05.326Z,21.9
2022-09-06T12:05:01.104Z,21.8
2022-09-06T12:06:01.066Z,21.9
2022-09-06T12:07:01.767Z,21.8
2022-09-06T12:08:01.490Z,21.9
2022-09-06T12:09:01.086Z,21.8
2022-09-06T12:10:01.374Z,21.8
2022-09-06T12:11:01.207Z,21.8
2022-09-06T12:12:01.864Z,21.8
2022-09-06T12:13:03.912Z,21.8
2022-09-06T12:14:02.326Z,21.8
2022-09-06T12:15:00.521Z,21.8
2022-09-06T12:16:00.294Z,21.8
2022-09-06T12:17:00.081Z,21.7
2022-09-06T12:18:05.441Z,21.8
2022-09-06T12:19:01.161Z,21.8
2022-09-06T12:20:01.258Z,21.8
2022-09-06T12:21:01.157Z,21.8
2022-09-06T12:22:01.087Z,21.9
2022-09-06T12:23:09.068Z,22
2022-09-06T12:24:01.165Z,22
2022-09-06T12:25:01.114Z,22
2022-09-06T12:26:01.106Z,22.1
2022-09-06T12:27:01.123Z,22.1
2022-09-06T12:28:11.267Z,22.1
2022-09-06T12:29:01.513Z,22.1
2022-09-06T12:30:02.300Z,22.2
2022-09-06T12:31:01.242Z,22.2
2022-09-06T12:32:01.991Z,22.2
2022-09-06T12:33:14.799Z,22.2
2022-09-06T12:34:01.044Z,22.2
2022-09-06T12:36:03.327Z,22.3
2022-09-06T12:37:01.724Z,22.3
2022-09-06T12:38:01.876Z,22.3
2022-09-06T12:39:01.895Z,22.4
2022-09-06T12:40:01.762Z,22.4
2022-09-06T12:41:01.089Z,22.5
2022-09-06T12:42:01.252Z,22.5
2022-09-06T12:43:01.330Z,22.5
2022-09-06T12:44:01.129Z,22.5
2022-09-06T12:45:01.128Z,22.5
2022-09-06T12:46:01.170Z,22.5
2022-09-06T12:47:01.049Z,22.5
2022-09-06T12:48:01.153Z,22.5
2022-09-06T12:49:01.478Z,22.5
2022-09-06T12:50:01.327Z,22.5
2022-09-06T12:51:02.847Z,22.5
2022-09-06T12:52:01.068Z,22.5
2022-09-06T12:53:01.068Z,22.4
2022-09-06T12:54:01.128Z,22.4
2022-09-06T12:55:01.296Z,22.3
2022-09-06T12:56:01.200Z,22.3
2022-09-06T12:57:01.526Z,22.3
2022-09-06T12:58:02.063Z,22.3
2022-09-06T12:59:01.107Z,22.3
2022-09-06T13:00:01.201Z,22.3
2022-09-06T13:01:01.355Z,22.3
2022-09-06T13:02:01.378Z,22.3
2022-09-06T13:03:01.498Z,22.3
2022-09-06T13:04:01.199Z,22.3
2022-09-06T13:05:01.141Z,22.3
2022-09-06T13:06:01.061Z,22.3
2022-09-06T13:07:01.065Z,22.4
2022-09-06T13:08:01.067Z,22.4
2022-09-06T13:09:01.142Z,22.4
2022-09-06T13:10:01.049Z,22.4
2022-09-06T13:11:01.106Z,22.4
2022-09-06T13:12:01.183Z,22.3
2022-09-06T13:13:01.093Z,22.3
2022-09-06T13:14:01.269Z,22.3
2022-09-06T13:15:01.111Z,22.3
2022-09-06T13:16:01.184Z,22.4
2022-09-06T13:17:01.133Z,22.4
2022-09-06T13:18:01.333Z,22.4
2022-09-06T13:19:01.255Z,22.4
2022-09-06T13:20:01.283Z,22.5
2022-09-06T13:21:01.853Z,22.5
2022-09-06T13:22:01.392Z,22.5
2022-09-06T13:23:01.426Z,22.5
2022-09-06T13:24:01.073Z,22.5
2022-09-06T13:25:02.267Z,22.5
2022-09-06T13:26:02.440Z,22.6
2022-09-06T13:27:01.800Z,22.6
2022-09-06T13:28:02.110Z,22.6
2022-09-06T13:29:01.775Z,22.6
2022-09-06T13:30:01.382Z,22.6
2022-09-06T13:31:02.481Z,22.7
2022-09-06T13:32:01.398Z,22.8
2022-09-06T13:33:01.141Z,22.8
2022-09-06T13:34:01.137Z,22.7
2022-09-06T13:35:00.729Z,22.7
2022-09-06T13:36:00.766Z,22.7
2022-09-06T13:37:00.463Z,22.7
2022-09-06T13:38:00.067Z,22.8
2022-09-06T13:38:59.777Z,22.8
2022-09-06T13:40:02.150Z,22.8
2022-09-06T13:41:13.527Z,22.8
2022-09-06T13:42:01.888Z,22.8
2022-09-06T13:43:01.996Z,22.8
2022-09-06T13:44:01.092Z,22.8
2022-09-06T13:45:02.277Z,22.8